Preview of NWS' New Version of Forecast
This preview is not operational and should not be used for support decisions.

Terminal Aerodrome Forecast (TAF)

Issued by National Weather Service (NWS)

                            
000
FTUS42 KCAE 190534
TAFOGB
TAF
KOGB 190534Z 1906/2006 06006KT P6SM BKN060
     FM191400 07010G16KT P6SM SCT060=